Time;durP1;ratioP1;P1;durP2;ratioP2;P2;SDS_P1;SDS_P2;PMS_P1;PMS_P2;Temp;Humidity;BMP_temperature;BMP_pressure;BME280_temperature;BME280_humidity;BME280_pressure;Samples;Min_cycle;Max_cycle;Signal;HPM_P1;HPM_P2
2023/03/22 00:01:57;;;;;;;206.90;103.10;;;;;;;7.05;85.53;98694.46;222544;1279;25351;-74
2023/03/22 00:07:05;;;;;;;219.70;107.10;;;;;;;7.02;85.20;98703.59;222322;1279;22553;-74
2023/03/22 00:12:09;;;;;;;220.60;109.90;;;;;;;7.01;85.67;98706.77;222516;1278;22588;-74
2023/03/22 00:17:13;;;;;;;261.00;126.30;;;;;;;6.99;85.68;98684.09;222318;1263;22559;-73
2023/03/22 00:22:24;;;;;;;261.40;123.10;;;;;;;6.93;86.11;98680.01;222380;1273;26271;-74
2023/03/22 00:27:35;;;;;;;244.60;119.10;;;;;;;6.82;85.86;98678.11;222629;1264;22592;-75
2023/03/22 00:32:37;;;;;;;251.80;122.30;;;;;;;6.67;85.79;98673.02;222169;1279;22646;-74
2023/03/22 00:37:40;;;;;;;276.90;130.30;;;;;;;6.56;85.90;98662.84;222280;1278;23274;-74
2023/03/22 00:42:51;;;;;;;283.30;129.00;;;;;;;6.50;86.02;98664.41;222401;1270;22646;-74
2023/03/22 00:48:01;;;;;;;283.00;125.60;;;;;;;6.45;86.17;98658.37;222373;1263;22543;-74
2023/03/22 00:53:05;;;;;;;275.20;124.70;;;;;;;6.39;86.43;98651.05;222477;1272;22657;-73
2023/03/22 00:58:31;;;;;;;275.90;119.70;;;;;;;6.32;86.70;98643.19;222277;1278;22530;-74
2023/03/22 01:03:40;;;;;;;271.00;115.80;;;;;;;6.26;86.60;98639.17;222284;1279;22871;-74
2023/03/22 01:08:43;;;;;;;281.00;123.10;;;;;;;6.18;86.55;98630.99;222667;1279;22549;-74
2023/03/22 01:13:46;;;;;;;302.50;135.80;;;;;;;6.07;86.77;98631.44;222112;1280;24207;-74
2023/03/22 01:18:50;;;;;;;314.90;146.70;;;;;;;5.97;86.41;98631.30;222319;1272;22574;-74
2023/03/22 01:23:52;;;;;;;311.00;144.70;;;;;;;5.86;86.64;98630.12;222265;1278;22594;-74
2023/03/22 01:28:55;;;;;;;308.20;140.20;;;;;;;5.76;86.69;98628.98;222502;1276;22549;-74
2023/03/22 01:33:57;;;;;;;318.40;139.90;;;;;;;5.65;86.66;98629.25;222278;1280;22664;-74
2023/03/22 01:39:02;;;;;;;312.70;137.60;;;;;;;5.55;86.82;98621.48;222316;1275;22787;-74
2023/03/22 01:44:11;;;;;;;306.50;139.00;;;;;;;5.47;86.86;98618.86;222166;1276;24230;-75
2023/03/22 01:49:31;;;;;;;303.90;134.40;;;;;;;5.38;86.59;98613.55;222492;1279;23573;-74
2023/03/22 01:54:44;;;;;;;292.80;133.80;;;;;;;5.27;86.84;98611.48;222352;1279;24822;-74
2023/03/22 02:00:32;;;;;;;290.30;131.40;;;;;;;5.18;86.90;98604.26;222102;1280;22580;-74
2023/03/22 02:05:46;;;;;;;304.50;129.50;;;;;;;5.09;86.81;98588.05;221613;1283;24156;-74
2023/03/22 02:10:55;;;;;;;279.30;125.50;;;;;;;5.03;86.86;98582.83;221551;1285;23575;-74
2023/03/22 02:16:47;;;;;;;290.30;128.50;;;;;;;5.02;87.30;98582.04;221444;1283;22540;-73
2023/03/22 02:22:15;;;;;;;288.60;129.80;;;;;;;5.02;87.33;98575.36;221530;1270;22533;-73
2023/03/22 02:28:01;;;;;;;316.60;132.30;;;;;;;5.02;87.49;98570.46;221621;1284;24525;-73
2023/03/22 02:33:30;;;;;;;306.60;133.60;;;;;;;5.02;87.60;98568.61;221451;1283;24308;-74
2023/03/22 02:39:04;;;;;;;258.70;119.90;;;;;;;4.98;87.49;98563.27;222438;1278;23236;-74
2023/03/22 02:44:42;;;;;;;275.70;121.60;;;;;;;4.89;87.03;98556.84;222473;1275;22896;-75
2023/03/22 02:49:55;;;;;;;264.40;112.20;;;;;;;4.79;87.18;98547.21;222576;1274;24270;-75
2023/03/22 02:55:19;;;;;;;300.20;122.40;;;;;;;4.77;87.34;98541.86;222465;1268;22562;-74
2023/03/22 03:00:29;;;;;;;289.50;115.80;;;;;;;4.79;87.82;98543.70;222543;1279;22643;-74
2023/03/22 03:05:35;;;;;;;282.30;117.70;;;;;;;4.81;87.96;98549.31;222339;1275;22526;-73
2023/03/22 03:10:51;;;;;;;262.70;114.00;;;;;;;4.85;88.11;98550.29;222292;1275;22617;-74
2023/03/22 03:15:58;;;;;;;288.30;120.20;;;;;;;4.91;88.33;98557.67;222320;1276;22526;-74
2023/03/22 03:21:35;;;;;;;260.70;112.80;;;;;;;4.99;88.37;98559.83;222234;1278;22564;-73
2023/03/22 03:27:02;;;;;;;266.20;114.60;;;;;;;5.09;88.26;98562.27;222322;1280;22555;-74
2023/03/22 03:32:30;;;;;;;286.00;125.40;;;;;;;5.20;88.34;98561.47;222200;1275;25314;-74
2023/03/22 03:37:46;;;;;;;260.50;113.60;;;;;;;5.29;88.24;98552.77;222348;1264;24189;-73
2023/03/22 03:42:52;;;;;;;249.10;113.80;;;;;;;5.29;87.79;98553.48;222398;1260;24400;-73
2023/03/22 03:48:03;;;;;;;278.90;120.00;;;;;;;5.21;87.42;98554.19;222157;1280;22543;-74
2023/03/22 03:53:12;;;;;;;237.30;108.60;;;;;;;5.20;87.95;98556.36;222608;1268;25434;-74
2023/03/22 03:58:15;;;;;;;223.00;107.00;;;;;;;5.24;88.02;98563.27;222282;1278;24375;-74
2023/03/22 04:03:18;;;;;;;261.10;121.30;;;;;;;5.26;87.75;98566.10;222583;1275;22566;-74
2023/03/22 04:08:44;;;;;;;206.40;99.00;;;;;;;5.30;87.70;98565.86;222028;1280;22573;-74
2023/03/22 04:13:51;;;;;;;197.30;90.50;;;;;;;5.39;87.94;98559.52;222229;1262;22604;-74
2023/03/22 04:18:55;;;;;;;201.30;95.40;;;;;;;5.43;87.65;98554.03;222199;1275;22822;-74
2023/03/22 04:23:58;;;;;;;178.30;86.30;;;;;;;5.37;87.35;98550.05;222277;1257;24126;-73
2023/03/22 04:29:25;;;;;;;180.10;92.20;;;;;;;5.33;87.24;98554.52;222186;1279;24403;-73
2023/03/22 04:34:34;;;;;;;158.80;84.90;;;;;;;5.35;87.45;98555.23;222376;1279;22704;-73
2023/03/22 04:39:39;;;;;;;152.80;82.30;;;;;;;5.38;87.31;98552.38;222257;1275;23550;-73
2023/03/22 04:45:04;;;;;;;170.70;91.60;;;;;;;5.44;87.34;98548.34;222504;1273;22586;-74
2023/03/22 04:50:08;;;;;;;163.40;91.40;;;;;;;5.50;87.23;98554.33;222407;1279;25384;-74
2023/03/22 04:55:37;;;;;;;193.60;103.90;;;;;;;5.55;87.24;98559.66;222436;1279;24316;-74
2023/03/22 05:00:42;;;;;;;174.20;94.10;;;;;;;5.60;87.26;98559.64;222355;1279;24241;-73
2023/03/22 05:05:52;;;;;;;161.60;90.20;;;;;;;5.62;86.99;98563.34;222202;1270;24313;-73
2023/03/22 05:11:00;;;;;;;175.90;96.10;;;;;;;5.62;87.00;98560.33;222366;1274;22696;-73
2023/03/22 05:16:04;;;;;;;192.00;101.50;;;;;;;5.69;87.31;98563.11;222378;1279;22568;-73
2023/03/22 05:21:34;;;;;;;186.40;100.20;;;;;;;5.82;87.23;98564.17;222515;1279;22475;-74
2023/03/22 05:27:05;;;;;;;187.50;101.40;;;;;;;5.96;87.31;98567.16;222387;1279;22527;-75
2023/03/22 05:32:08;;;;;;;187.10;102.70;;;;;;;6.09;87.30;98568.07;222434;1275;25345;-73
2023/03/22 05:37:20;;;;;;;186.30;102.30;;;;;;;6.23;87.45;98567.77;222129;1280;22758;-74
2023/03/22 05:42:31;;;;;;;189.40;97.90;;;;;;;6.38;87.28;98565.61;222117;1264;23384;-73
2023/03/22 05:47:34;;;;;;;195.00;98.20;;;;;;;6.55;87.66;98563.94;222103;1274;25479;-74
2023/03/22 05:52:45;;;;;;;186.10;95.50;;;;;;;6.76;87.59;98561.68;222034;1268;25451;-74
2023/03/22 05:58:03;;;;;;;165.80;87.30;;;;;;;6.98;87.75;98557.07;222379;1279;22629;-73
2023/03/22 06:03:17;;;;;;;161.50;85.30;;;;;;;7.19;87.45;98559.15;222328;1256;22561;-74
2023/03/22 06:08:26;;;;;;;161.70;82.50;;;;;;;7.39;87.14;98565.45;222339;1278;23348;-74
2023/03/22 06:13:28;;;;;;;161.00;82.50;;;;;;;7.56;87.52;98566.95;222223;1268;25807;-73
2023/03/22 06:18:32;;;;;;;149.30;80.90;;;;;;;7.71;87.01;98564.52;222252;1278;22535;-75
2023/03/22 06:23:42;;;;;;;152.40;83.90;;;;;;;7.83;86.74;98563.88;222538;1278;25294;-73
2023/03/22 06:28:47;;;;;;;144.10;79.50;;;;;;;7.93;86.65;98564.36;222451;1275;25416;-73
2023/03/22 06:34:13;;;;;;;139.70;79.40;;;;;;;8.03;86.49;98565.55;221927;1282;24245;-73
2023/03/22 06:39:35;;;;;;;138.20;76.90;;;;;;;8.17;86.08;98567.84;221232;1280;22544;-73
2023/03/22 06:44:45;;;;;;;133.40;74.20;;;;;;;8.33;85.95;98573.71;221281;1276;24991;-75
2023/03/22 06:50:02;;;;;;;143.60;84.90;;;;;;;8.52;85.66;98573.25;221536;1267;22559;-73
2023/03/22 06:55:27;;;;;;;127.80;73.00;;;;;;;8.76;85.70;98569.64;221573;1270;22530;-72
2023/03/22 07:00:33;;;;;;;121.20;69.80;;;;;;;9.00;85.64;98573.84;221634;1271;22557;-75
2023/03/22 07:05:35;;;;;;;111.10;66.90;;;;;;;9.22;85.15;98573.92;222350;1268;22550;-72
2023/03/22 07:10:38;;;;;;;98.10;58.70;;;;;;;9.42;84.54;98582.10;222610;1264;23133;-74
2023/03/22 07:15:55;;;;;;;97.60;60.40;;;;;;;9.69;84.38;98588.48;223282;1262;138664;-73
2023/03/22 07:21:14;;;;;;;98.10;60.20;;;;;;;10.00;84.20;98590.27;222552;1260;139344;-76
2023/03/22 07:26:17;;;;;;;98.00;59.90;;;;;;;10.30;84.00;98586.86;222475;1259;139970;-73
2023/03/22 07:31:22;;;;;;;111.20;62.50;;;;;;;10.59;83.49;98581.11;222595;1266;139510;-73
2023/03/22 07:36:37;;;;;;;79.20;49.90;;;;;;;10.87;83.01;98579.90;222854;1272;139283;-72
2023/03/22 07:41:42;;;;;;;90.00;56.00;;;;;;;11.10;82.55;98574.25;222551;1272;139485;-74
2023/03/22 07:47:14;;;;;;;96.90;60.70;;;;;;;11.37;82.17;98567.80;221937;1259;139983;-72
2023/03/22 07:52:36;;;;;;;239.80;105.20;;;;;;;11.68;81.66;98565.13;222659;1272;24251;-72
2023/03/22 07:57:38;;;;;;;244.40;117.40;;;;;;;11.98;81.14;98561.22;222259;1272;139975;-71
2023/03/22 08:02:44;;;;;;;91.20;58.20;;;;;;;12.46;81.46;98559.96;222245;1275;139199;-72
2023/03/22 08:08:08;;;;;;;84.30;57.30;;;;;;;12.75;80.23;98553.77;222629;1261;138924;-72
2023/03/22 08:13:11;;;;;;;64.60;46.40;;;;;;;12.64;78.38;98556.97;223053;1272;139462;-74
2023/03/22 08:18:14;;;;;;;62.50;44.70;;;;;;;12.46;77.93;98560.17;222840;1259;139412;-75
2023/03/22 08:23:17;;;;;;;78.10;43.80;;;;;;;12.46;77.90;98554.95;222661;1272;139746;-73
2023/03/22 08:28:46;;;;;;;78.40;42.50;;;;;;;12.61;78.16;98548.45;222635;1268;22536;-71
2023/03/22 08:33:49;;;;;;;55.80;34.50;;;;;;;12.86;77.91;98544.40;222503;1266;138649;-74
2023/03/22 08:38:52;;;;;;;84.80;33.60;;;;;;;13.02;77.32;98537.00;222678;1264;140036;-72
2023/03/22 08:43:57;;;;;;;76.70;35.90;;;;;;;13.14;76.72;98539.95;222546;1262;138964;-71
2023/03/22 08:49:04;;;;;;;41.80;29.40;;;;;;;13.30;76.75;98539.08;222415;1268;139654;-72
2023/03/22 08:54:15;;;;;;;63.20;33.50;;;;;;;13.48;76.15;98541.20;222456;1272;139019;-75
2023/03/22 08:59:26;;;;;;;36.20;27.50;;;;;;;13.64;75.58;98541.19;222229;1268;140298;-73
2023/03/22 09:05:08;;;;;;;44.30;30.80;;;;;;;13.72;75.06;98539.34;222401;1266;139361;-72
2023/03/22 09:10:11;;;;;;;38.00;26.60;;;;;;;13.91;75.05;98534.77;222421;1265;22517;-72
2023/03/22 09:15:15;;;;;;;40.30;29.40;;;;;;;14.18;75.18;98529.42;222456;1265;138766;-72
2023/03/22 09:20:24;;;;;;;44.90;30.80;;;;;;;14.50;74.77;98530.71;222652;1276;139019;-72
2023/03/22 09:25:41;;;;;;;48.90;25.30;;;;;;;14.73;73.93;98525.04;222553;1275;138926;-73
2023/03/22 09:31:01;;;;;;;27.80;22.20;;;;;;;14.95;73.34;98531.91;222425;1269;139632;-78
2023/03/22 09:36:12;;;;;;;41.10;26.90;;;;;;;15.10;72.44;98512.66;222484;1272;139736;-75
2023/03/22 09:41:38;;;;;;;83.20;32.60;;;;;;;15.23;71.83;98513.33;222312;1275;139689;-74
2023/03/22 09:46:48;;;;;;;33.00;20.00;;;;;;;15.50;71.98;98510.98;222253;1257;23229;-74
2023/03/22 09:51:52;;;;;;;32.30;19.80;;;;;;;15.79;71.36;98502.87;222310;1272;139289;-75
2023/03/22 09:57:14;;;;;;;23.70;18.10;;;;;;;15.99;70.98;98503.25;222219;1279;140330;-74
2023/03/22 10:02:42;;;;;;;26.20;18.80;;;;;;;15.99;70.20;98497.61;222741;1278;138927;-73
2023/03/22 10:08:05;;;;;;;48.00;22.60;;;;;;;16.01;69.93;98491.21;222412;1256;139594;-73
2023/03/22 10:13:30;;;;;;;51.00;20.40;;;;;;;16.12;70.52;98487.95;222639;1275;139170;-74
2023/03/22 10:18:42;;;;;;;22.80;16.60;;;;;;;16.38;70.32;98480.98;222308;1268;249132;-74
2023/03/22 10:23:56;;;;;;;35.50;17.20;;;;;;;16.43;69.21;98483.73;222181;1272;139346;-74
2023/03/22 10:29:04;;;;;;;18.40;14.70;;;;;;;16.35;68.48;98485.38;222497;1268;24126;-74
2023/03/22 10:34:26;;;;;;;37.70;17.40;;;;;;;16.33;67.89;98484.70;222327;1264;25103;-73
2023/03/22 10:39:34;;;;;;;32.70;15.20;;;;;;;16.40;67.82;98475.85;222206;1272;139944;-72
2023/03/22 10:44:49;;;;;;;39.70;17.30;;;;;;;16.48;67.49;98470.69;222796;1267;138519;-72
2023/03/22 10:50:02;;;;;;;20.10;13.20;;;;;;;16.51;67.29;98472.52;222713;1271;139778;-75
2023/03/22 10:55:09;;;;;;;26.40;13.60;;;;;;;16.57;67.76;98466.95;222800;1268;139343;-76
2023/03/22 11:00:16;;;;;;;22.70;12.00;;;;;;;16.68;67.78;98471.52;222167;1276;138644;-74
2023/03/22 11:05:27;;;;;;;24.70;11.80;;;;;;;16.71;66.89;98468.50;222347;1273;139326;-73
2023/03/22 11:10:33;;;;;;;19.00;12.20;;;;;;;16.59;66.41;98460.70;222394;1269;22554;-73
2023/03/22 11:16:00;;;;;;;17.70;10.70;;;;;;;16.50;66.00;98459.65;222665;1272;138271;-74
2023/03/22 11:21:10;;;;;;;23.20;10.30;;;;;;;16.53;66.15;98455.34;222543;1272;139610;-74
2023/03/22 11:26:27;;;;;;;12.60;10.90;;;;;;;16.55;66.26;98454.03;222657;1272;138682;-74
2023/03/22 11:31:55;;;;;;;15.70;10.80;;;;;;;16.62;66.14;98443.16;222606;1256;139417;-73
2023/03/22 11:37:00;;;;;;;13.90;12.20;;;;;;;16.61;65.11;98441.54;223035;1278;139310;-73
2023/03/22 11:42:05;;;;;;;21.00;13.20;;;;;;;16.58;65.53;98441.21;222502;1260;138737;-74
2023/03/22 11:47:20;;;;;;;17.70;13.10;;;;;;;16.68;65.94;98431.88;222554;1272;138721;-74
2023/03/22 11:52:33;;;;;;;45.80;17.20;;;;;;;16.82;65.72;98427.26;222813;1272;22572;-75
2023/03/22 11:57:36;;;;;;;16.70;14.50;;;;;;;16.93;65.58;98421.87;222785;1272;138575;-73
2023/03/22 12:02:53;;;;;;;16.30;11.90;;;;;;;17.17;66.10;98410.95;222488;1264;138594;-75
2023/03/22 12:08:14;;;;;;;22.80;10.60;;;;;;;17.33;65.02;98401.27;222373;1272;139221;-73
2023/03/22 12:13:26;;;;;;;15.30;9.70;;;;;;;17.44;64.90;98402.45;222371;1271;138650;-74
2023/03/22 12:18:43;;;;;;;11.90;8.00;;;;;;;17.50;63.91;98398.30;222537;1266;138433;-73
2023/03/22 12:23:48;;;;;;;14.90;8.00;;;;;;;17.54;64.00;98396.76;222409;1273;138452;-73
2023/03/22 12:29:17;;;;;;;151.90;15.40;;;;;;;17.66;63.73;98393.66;222770;1272;25239;-73
2023/03/22 12:34:24;;;;;;;54.20;10.00;;;;;;;17.79;63.49;98380.25;224273;1266;22949;-73
2023/03/22 12:39:33;;;;;;;10.70;7.80;;;;;;;17.92;62.76;98380.92;222601;1272;138238;-72
2023/03/22 12:44:57;;;;;;;10.00;8.20;;;;;;;17.95;62.23;98372.56;222318;1271;138678;-75
2023/03/22 12:50:39;;;;;;;13.20;9.60;;;;;;;18.04;62.14;98367.13;222382;1272;138433;-73
2023/03/22 12:55:46;;;;;;;9.90;8.80;;;;;;;18.08;61.61;98364.42;222434;1272;139034;-74
2023/03/22 13:01:16;;;;;;;15.30;12.20;;;;;;;18.10;61.73;98359.35;222274;1273;138909;-75
2023/03/22 13:07:03;;;;;;;19.90;14.40;;;;;;;18.10;61.22;98356.63;221560;1256;138682;-76
2023/03/22 13:12:17;;;;;;;10.70;7.30;;;;;;;18.11;61.28;98357.80;220849;1272;138650;-75
2023/03/22 13:17:40;;;;;;;17.20;8.40;;;;;;;18.10;61.07;98351.61;221674;1272;138497;-82
2023/03/22 13:23:12;;;;;;;17.00;6.70;;;;;;;18.07;61.36;98348.25;222185;1273;22504;-76
2023/03/22 13:28:26;;;;;;;13.40;6.80;;;;;;;18.06;61.54;98343.27;221530;1279;22535;-75
2023/03/22 13:33:33;;;;;;;7.50;6.00;;;;;;;18.04;61.13;98342.55;221511;1278;138667;-74
2023/03/22 13:38:41;;;;;;;21.20;6.10;;;;;;;17.97;60.97;98338.42;221742;1279;138396;-74
2023/03/22 13:44:44;;;;;;;8.70;6.10;;;;;;;18.08;61.31;98330.45;221681;1272;138426;-75
2023/03/22 13:50:00;;;;;;;7.20;6.20;;;;;;;18.16;60.74;98323.67;221752;1262;138782;-75
2023/03/22 13:55:35;;;;;;;14.70;10.40;;;;;;;18.13;60.25;98318.96;221752;1269;137968;-79
2023/03/22 14:00:43;;;;;;;9.90;7.10;;;;;;;18.12;60.25;98311.73;221593;1266;138758;-76
2023/03/22 14:06:34;;;;;;;9.70;7.00;;;;;;;18.13;60.01;98303.92;221599;1274;137925;-77
2023/03/22 14:12:05;;;;;;;12.70;7.30;;;;;;;18.15;60.26;98303.75;221703;1274;137936;-77
2023/03/22 14:17:38;;;;;;;23.60;7.20;;;;;;;18.15;60.22;98299.52;221812;1273;22847;-75
2023/03/22 14:22:47;;;;;;;79.70;11.00;;;;;;;18.08;60.06;98299.07;221867;1278;25268;-72
2023/03/22 14:27:54;;;;;;;14.80;8.60;;;;;;;18.08;60.27;98297.58;221631;1276;138287;-72
2023/03/22 14:32:58;;;;;;;17.60;6.40;;;;;;;18.11;60.09;98293.00;221453;1272;138388;-72
2023/03/22 14:38:15;;;;;;;12.60;6.00;;;;;;;18.08;59.83;98290.67;221603;1273;138566;-72
2023/03/22 14:43:19;;;;;;;14.10;8.50;;;;;;;18.03;59.59;98287.40;221706;1267;138427;-72
2023/03/22 14:48:30;;;;;;;6.50;4.70;;;;;;;17.93;59.47;98285.94;222326;1273;138140;-71
2023/03/22 14:53:37;;;;;;;6.20;4.80;;;;;;;17.87;59.79;98285.48;221324;1263;138271;-74
2023/03/22 14:58:58;;;;;;;4.90;4.40;;;;;;;17.81;59.81;98271.24;221452;1273;22520;-77
2023/03/22 15:04:12;;;;;;;5.30;4.30;;;;;;;17.75;59.42;98268.33;221326;1279;138546;-78
2023/03/22 15:09:37;;;;;;;5.00;4.50;;;;;;;17.69;59.25;98268.07;222443;1272;138035;-76
2023/03/22 15:15:08;;;;;;;6.50;4.60;;;;;;;17.65;59.34;98263.11;221559;1285;22547;-76
2023/03/22 15:20:16;;;;;;;4.90;4.10;;;;;;;17.66;59.14;98259.73;220339;1285;22609;-78
2023/03/22 15:25:23;;;;;;;4.90;4.10;;;;;;;17.64;59.29;98262.71;220724;1285;22544;-77
2023/03/22 15:30:35;;;;;;;4.80;4.30;;;;;;;17.61;59.41;98256.50;220816;1284;22538;-77
2023/03/22 15:35:36;;;;;;;5.10;4.10;;;;;;;17.54;59.29;98260.62;220294;1285;22574;-77
2023/03/22 15:40:42;;;;;;;5.50;4.20;;;;;;;17.40;59.05;98255.02;220671;1285;25545;-77
2023/03/22 15:46:30;;;;;;;4.80;4.00;;;;;;;17.28;59.09;98255.79;221066;1285;22538;-77
2023/03/22 15:51:42;;;;;;;5.70;3.50;;;;;;;17.14;59.46;98257.61;221434;1285;22570;-76
2023/03/22 15:57:08;;;;;;;4.80;3.50;;;;;;;17.01;58.87;98256.70;221289;1281;22541;-75
2023/03/22 16:02:38;;;;;;;3.70;3.40;;;;;;;16.85;59.14;98254.83;221510;1282;25220;-76
2023/03/22 16:07:48;;;;;;;3.40;3.10;;;;;;;16.72;59.46;98255.99;221269;1285;22579;-77
2023/03/22 16:13:00;;;;;;;5.60;3.50;;;;;;;16.61;59.57;98255.73;222103;1279;22535;-76
2023/03/22 16:18:15;;;;;;;5.20;3.50;;;;;;;16.48;59.92;98253.62;222119;1279;22524;-76
2023/03/22 16:23:20;;;;;;;4.80;3.90;;;;;;;16.40;60.16;98254.00;221237;1279;25443;-76
2023/03/22 16:28:31;;;;;;;6.20;4.40;;;;;;;16.33;60.26;98251.52;221335;1279;22632;-75
2023/03/22 16:33:41;;;;;;;6.60;4.40;;;;;;;16.25;60.70;98247.05;221984;1279;22587;-76
2023/03/22 16:38:48;;;;;;;7.00;5.40;;;;;;;16.14;60.84;98247.54;221258;1279;24243;-76
2023/03/22 16:43:55;;;;;;;8.10;5.30;;;;;;;15.99;60.87;98249.58;221392;1277;25291;-76
2023/03/22 16:49:05;;;;;;;7.20;5.00;;;;;;;15.81;61.30;98250.73;222011;1279;25287;-76
2023/03/22 16:54:11;;;;;;;8.00;5.70;;;;;;;15.59;61.43;98250.52;222356;1279;22633;-75
2023/03/22 16:59:15;;;;;;;7.60;5.90;;;;;;;15.38;62.00;98257.80;222202;1279;22659;-76
2023/03/22 17:04:25;;;;;;;7.00;5.70;;;;;;;15.16;62.10;98258.80;221755;1279;24237;-76
2023/03/22 17:09:32;;;;;;;9.30;5.80;;;;;;;14.98;62.45;98261.34;221297;1277;22527;-77
2023/03/22 17:14:33;;;;;;;7.50;6.00;;;;;;;14.77;62.81;98259.32;222147;1276;22655;-76
2023/03/22 17:19:38;;;;;;;8.80;6.00;;;;;;;14.58;63.19;98265.17;221806;1279;22530;-75
2023/03/22 17:24:45;;;;;;;8.50;6.50;;;;;;;14.41;63.49;98261.45;221352;1279;22558;-76
2023/03/22 17:29:48;;;;;;;9.50;6.90;;;;;;;14.28;63.66;98259.16;221236;1279;22573;-75
2023/03/22 17:34:49;;;;;;;10.20;6.90;;;;;;;14.16;63.97;98264.63;221252;1279;25260;-75
2023/03/22 17:39:53;;;;;;;9.00;6.80;;;;;;;14.04;64.15;98270.18;221391;1279;24722;-75
2023/03/22 17:45:08;;;;;;;11.40;8.90;;;;;;;13.91;64.42;98270.41;221276;1279;22621;-75
2023/03/22 17:50:21;;;;;;;12.80;7.70;;;;;;;13.82;64.62;98272.30;221693;1279;24516;-75
2023/03/22 17:55:38;;;;;;;9.80;7.30;;;;;;;13.73;64.84;98274.45;222515;1279;22726;-75
2023/03/22 18:00:39;;;;;;;8.60;6.70;;;;;;;13.67;64.95;98277.85;221919;1279;22641;-75
2023/03/22 18:05:43;;;;;;;11.80;7.90;;;;;;;13.60;65.07;98288.66;221760;1279;22578;-76
2023/03/22 18:10:49;;;;;;;11.90;8.80;;;;;;;13.57;65.36;98288.86;222432;1277;25390;-75
2023/03/22 18:16:00;;;;;;;11.90;9.00;;;;;;;13.53;65.45;98297.67;221245;1279;22535;-75
2023/03/22 18:21:29;;;;;;;13.60;8.80;;;;;;;13.45;65.55;98293.92;222037;1279;22528;-74
2023/03/22 18:26:45;;;;;;;14.00;9.30;;;;;;;13.37;65.72;98299.52;221370;1279;22593;-76
2023/03/22 18:31:58;;;;;;;19.50;12.70;;;;;;;13.29;65.83;98301.16;221540;1279;24440;-76
2023/03/22 18:37:00;;;;;;;22.30;14.80;;;;;;;13.20;66.08;98299.60;221323;1276;22537;-75
2023/03/22 18:42:01;;;;;;;30.00;19.60;;;;;;;13.09;66.29;98299.57;221260;1279;26358;-74
2023/03/22 18:47:05;;;;;;;35.30;23.30;;;;;;;13.00;66.50;98295.31;221305;1278;25338;-75
2023/03/22 18:52:12;;;;;;;36.00;24.60;;;;;;;12.93;66.72;98293.00;222246;1279;26300;-75
2023/03/22 18:57:19;;;;;;;30.90;21.40;;;;;;;12.85;66.81;98297.46;221793;1274;23369;-74
2023/03/22 19:02:23;;;;;;;30.80;21.30;;;;;;;12.78;66.96;98294.52;221444;1279;23808;-74
2023/03/22 19:07:41;;;;;;;30.00;21.00;;;;;;;12.70;67.20;98297.19;221368;1279;22534;-74
2023/03/22 19:12:47;;;;;;;32.60;21.00;;;;;;;12.61;67.43;98292.84;221518;1279;24315;-75
2023/03/22 19:17:49;;;;;;;27.10;18.20;;;;;;;12.53;67.78;98293.23;221390;1279;22482;-74
2023/03/22 19:23:07;;;;;;;25.30;16.90;;;;;;;12.45;67.79;98292.64;221187;1279;24288;-75
2023/03/22 19:28:11;;;;;;;26.70;17.70;;;;;;;12.39;68.04;98291.36;222323;1277;22625;-74
2023/03/22 19:33:18;;;;;;;27.50;18.30;;;;;;;12.34;68.14;98292.72;222186;1279;22530;-73
2023/03/22 19:38:33;;;;;;;28.50;18.40;;;;;;;12.30;68.20;98293.08;221408;1279;25352;-74
2023/03/22 19:44:04;;;;;;;;;;;;;;;;;;;;;
2023/03/22 19:49:10;;;;;;;30.30;20.50;;;;;;;12.13;68.54;98295.97;222308;1278;23300;-75
2023/03/22 19:54:12;;;;;;;30.10;20.00;;;;;;;12.03;68.53;98292.25;221586;1273;25320;-73
2023/03/22 19:59:27;;;;;;;36.70;22.90;;;;;;;11.92;68.64;98287.55;221618;1279;24197;-74
2023/03/22 20:04:36;;;;;;;43.00;24.80;;;;;;;11.82;68.95;98281.90;222392;1262;23175;-73
2023/03/22 20:10:12;;;;;;;;;;;;;;;;;;;;;
2023/03/22 20:15:50;;;;;;;40.40;25.70;;;;;;;11.67;69.41;98281.29;221494;1279;22527;-74
2023/03/22 20:21:17;;;;;;;39.50;25.80;;;;;;;11.60;69.38;98275.14;221557;1279;24218;-74
2023/03/22 20:26:20;;;;;;;45.50;26.80;;;;;;;11.55;69.66;98273.66;221301;1279;23768;-74
2023/03/22 20:31:29;;;;;;;42.00;25.80;;;;;;;11.50;70.01;98271.17;221345;1279;22730;-74
2023/03/22 20:36:50;;;;;;;40.50;25.70;;;;;;;11.46;70.10;98274.73;221310;1279;24139;-76
2023/03/22 20:41:57;;;;;;;39.10;24.10;;;;;;;11.41;70.12;98276.77;221543;1279;22589;-74
2023/03/22 20:47:11;;;;;;;37.20;23.50;;;;;;;11.38;70.35;98278.86;221445;1279;23829;-74
2023/03/22 20:52:26;;;;;;;37.70;22.60;;;;;;;11.34;70.68;98284.10;221398;1278;25363;-73
2023/03/22 20:57:31;;;;;;;35.00;23.20;;;;;;;11.29;70.66;98283.77;221490;1275;25408;-74
2023/03/22 21:02:33;;;;;;;35.10;22.00;;;;;;;11.22;70.61;98284.35;221597;1273;25341;-75
2023/03/22 21:07:34;;;;;;;34.00;23.10;;;;;;;11.16;70.91;98286.55;221520;1274;23589;-74
2023/03/22 21:12:39;;;;;;;30.50;21.00;;;;;;;11.10;71.11;98286.80;222141;1279;24229;-75
2023/03/22 21:17:53;;;;;;;31.40;22.30;;;;;;;11.05;71.34;98286.06;221401;1264;22582;-74
2023/03/22 21:23:04;;;;;;;;;;;;;;;10.99;71.32;98284.34;221286;1279;22617;-75
2023/03/22 21:28:25;;;;;;;33.60;20.90;;;;;;;10.92;71.44;98285.89;221478;1279;24228;-74
2023/03/22 21:33:39;;;;;;;36.80;24.00;;;;;;;10.83;71.73;98286.77;221086;1279;22563;-74
2023/03/22 21:38:53;;;;;;;32.00;23.20;;;;;;;10.78;71.54;98282.63;220998;1263;24232;-74
2023/03/22 21:44:07;;;;;;;34.60;21.70;;;;;;;10.73;71.99;98288.83;221246;1279;22487;-74
2023/03/22 21:49:24;;;;;;;33.80;22.20;;;;;;;10.68;71.99;98296.80;221243;1263;22617;-75
2023/03/22 21:54:28;;;;;;;30.90;20.00;;;;;;;10.62;72.10;98295.61;222240;1278;22560;-74
2023/03/22 21:59:35;;;;;;;30.60;21.20;;;;;;;10.57;72.31;98296.98;221373;1279;22529;-74
2023/03/22 22:04:49;;;;;;;31.50;20.90;;;;;;;10.51;72.02;98297.09;221147;1279;23797;-73
2023/03/22 22:09:56;;;;;;;32.90;21.70;;;;;;;10.43;72.40;98299.85;221186;1275;22660;-73
2023/03/22 22:15:40;;;;;;;32.50;20.30;;;;;;;10.34;72.51;98302.45;221997;1279;22690;-74
2023/03/22 22:20:59;;;;;;;30.80;20.20;;;;;;;10.26;72.84;98301.05;217392;1279;5365174;-75
2023/03/22 22:26:16;;;;;;;28.70;19.80;;;;;;;10.19;72.85;98300.54;221826;1279;22826;-74
2023/03/22 22:31:42;;;;;;;32.90;20.70;;;;;;;10.12;73.14;98300.85;221305;1275;25344;-74
2023/03/22 22:37:05;;;;;;;29.00;19.60;;;;;;;10.07;73.42;98301.41;221245;1279;22541;-74
2023/03/22 22:42:07;;;;;;;27.80;18.70;;;;;;;10.02;73.44;98304.91;221492;1278;22680;-74
2023/03/22 22:47:09;;;;;;;26.80;19.30;;;;;;;9.99;73.35;98308.91;221227;1275;22537;-74
2023/03/22 22:52:12;;;;;;;25.10;18.10;;;;;;;9.97;73.66;98307.48;221321;1279;22598;-75
2023/03/22 22:57:17;;;;;;;27.00;18.30;;;;;;;9.97;73.86;98304.83;222141;1278;22554;-74
2023/03/22 23:02:21;;;;;;;24.90;17.20;;;;;;;9.98;73.89;98308.87;221401;1279;22523;-73
2023/03/22 23:07:25;;;;;;;23.60;17.10;;;;;;;9.99;73.88;98309.12;221392;1279;24890;-74
2023/03/22 23:12:31;;;;;;;23.20;17.20;;;;;;;9.96;73.88;98312.88;221397;1279;22530;-73
2023/03/22 23:17:52;;;;;;;23.10;17.00;;;;;;;9.86;73.96;98311.78;221344;1279;24240;-74
2023/03/22 23:23:19;;;;;;;23.90;16.50;;;;;;;9.75;74.09;98315.98;221243;1278;22513;-74
2023/03/22 23:28:32;;;;;;;22.60;16.20;;;;;;;9.66;74.40;98314.45;221108;1279;22668;-73
2023/03/22 23:33:49;;;;;;;23.70;17.50;;;;;;;9.62;74.50;98315.13;222180;1279;22549;-75
2023/03/22 23:39:03;;;;;;;26.90;20.50;;;;;;;9.51;74.49;98314.40;221321;1279;22737;-74
2023/03/22 23:44:08;;;;;;;24.10;18.80;;;;;;;9.39;74.51;98317.27;221246;1279;22524;-75
2023/03/22 23:49:21;;;;;;;27.70;19.00;;;;;;;9.25;74.60;98319.88;221282;1279;24440;-74